createdAt,value
2023-05-04T00:02:39.280Z,101000.75
2023-05-04T00:05:42.135Z,101005.31
2023-05-04T00:08:44.862Z,101010.03
2023-05-04T00:11:48.221Z,100997.47
2023-05-04T00:14:50.956Z,100994.69
2023-05-04T00:17:55.106Z,100996.87
2023-05-04T00:20:59.049Z,100995.53
2023-05-04T00:24:02.607Z,100994.53
2023-05-04T00:27:05.205Z,100984.31
2023-05-04T00:30:08.897Z,100983.88
2023-05-04T00:33:14.602Z,100982.75
2023-05-04T00:36:17.653Z,100984.28
2023-05-04T00:39:20.609Z,100981.91
2023-05-04T00:42:23.405Z,100986.72
2023-05-04T00:45:26.360Z,100979.25
2023-05-04T00:48:29.081Z,100979.09
2023-05-04T00:51:32.275Z,100967.03
2023-05-04T00:54:35.189Z,100961.22
2023-05-04T00:57:38.041Z,100965.66
2023-05-04T01:00:45.571Z,100964.00
2023-05-04T01:03:49.903Z,100962.34
2023-05-04T01:07:01.177Z,100960.13
2023-05-04T01:10:13.189Z,100962.37
2023-05-04T01:13:19.120Z,100961.28
2023-05-04T01:16:22.117Z,100963.53
2023-05-04T01:19:25.223Z,100965.47
2023-05-04T01:22:27.923Z,100965.75
2023-05-04T01:25:59.728Z,100944.03
2023-05-04T01:29:18.745Z,100951.09
2023-05-04T01:32:22.291Z,100957.75
2023-05-04T01:35:25.627Z,100946.69
2023-05-04T01:38:28.789Z,100957.06
2023-05-04T01:41:31.691Z,100946.44
2023-05-04T01:44:34.408Z,100943.41
2023-05-04T01:47:37.132Z,100939.56
2023-05-04T01:50:41.296Z,100937.47
2023-05-04T01:53:44.182Z,100934.28
2023-05-04T01:56:46.936Z,100924.31
2023-05-04T01:59:49.756Z,100928.03
2023-05-04T02:02:53.328Z,100923.03
2023-05-04T02:05:55.973Z,100917.91
2023-05-04T02:08:58.682Z,100925.94
2023-05-04T02:12:01.344Z,100921.75
2023-05-04T02:15:04.685Z,100927.84
2023-05-04T02:18:07.385Z,100925.91
2023-05-04T02:21:10.215Z,100923.41
2023-05-04T02:24:12.803Z,100927.44
2023-05-04T02:27:15.518Z,100922.34
2023-05-04T02:30:18.476Z,100924.25
2023-05-04T02:33:21.667Z,100925.37
2023-05-04T02:36:24.386Z,100925.81
2023-05-04T02:39:27.450Z,100934.75
2023-05-04T02:42:30.399Z,100933.84
2023-05-04T02:45:33.120Z,100929.28
2023-05-04T02:48:35.902Z,100933.62
2023-05-04T02:51:38.572Z,100935.44
2023-05-04T02:54:41.270Z,100945.25
2023-05-04T02:57:44.022Z,100945.13
2023-05-04T03:00:48.350Z,100943.91
2023-05-04T03:03:51.090Z,100941.16
2023-05-04T03:06:53.764Z,100938.41
2023-05-04T03:09:56.570Z,100937.69
2023-05-04T03:13:03.995Z,100943.91
2023-05-04T03:16:06.915Z,100940.44
2023-05-04T03:19:10.000Z,100937.00
2023-05-04T03:22:12.984Z,100945.13
2023-05-04T03:25:15.674Z,100945.69
2023-05-04T03:28:18.450Z,100942.09
2023-05-04T03:31:21.713Z,100943.47
2023-05-04T03:34:24.628Z,100938.50
2023-05-04T03:37:27.301Z,100942.09
2023-05-04T03:40:31.370Z,100944.78
2023-05-04T03:43:34.013Z,100946.47
2023-05-04T03:46:36.849Z,100952.09
2023-05-04T03:49:39.955Z,100950.31
2023-05-04T03:52:42.683Z,100950.84
2023-05-04T03:55:45.420Z,100959.78
2023-05-04T03:58:48.284Z,100960.16
2023-05-04T04:01:51.523Z,100966.84
2023-05-04T04:04:54.182Z,100968.34
2023-05-04T04:07:56.845Z,100969.69
2023-05-04T04:11:01.886Z,100965.69
2023-05-04T04:14:04.606Z,100960.19
2023-05-04T04:17:07.235Z,100957.88
2023-05-04T04:20:10.703Z,100961.63
2023-05-04T04:23:18.668Z,100970.38
2023-05-04T04:26:21.819Z,100966.81
2023-05-04T04:29:24.551Z,100959.56
2023-05-04T04:32:27.422Z,100967.22
2023-05-04T04:35:30.720Z,100964.06
2023-05-04T04:38:33.604Z,100968.63
2023-05-04T04:41:36.306Z,100971.44
2023-05-04T04:44:39.560Z,100966.44
2023-05-04T04:47:43.752Z,100967.12
2023-05-04T04:50:49.659Z,100965.06
2023-05-04T04:53:52.496Z,100972.19
2023-05-04T04:56:55.763Z,100970.09
2023-05-04T04:59:58.519Z,100970.59
2023-05-04T05:03:01.882Z,100973.75
2023-05-04T05:06:04.653Z,100973.28
2023-05-04T05:09:07.332Z,100974.78
2023-05-04T05:12:09.973Z,100981.66
2023-05-04T05:15:12.901Z,100974.41
2023-05-04T05:18:15.772Z,100978.47
2023-05-04T05:21:19.806Z,100981.88
2023-05-04T05:24:22.915Z,100980.41
2023-05-04T05:27:25.632Z,100985.53
2023-05-04T05:30:28.936Z,100986.88
2023-05-04T05:33:31.817Z,100995.81
2023-05-04T05:36:34.679Z,100994.09
2023-05-04T05:39:37.378Z,100997.19
2023-05-04T05:42:40.386Z,100997.50
2023-05-04T05:45:43.427Z,101005.41
2023-05-04T05:48:46.192Z,100996.22
2023-05-04T05:51:48.908Z,100999.37
2023-05-04T05:54:51.526Z,100995.41
2023-05-04T05:57:54.471Z,101008.41
2023-05-04T06:00:57.880Z,100995.63
2023-05-04T06:04:00.736Z,101001.09
2023-05-04T06:07:03.504Z,101000.53
2023-05-04T06:10:06.815Z,100993.66
2023-05-04T06:13:09.830Z,100999.31
2023-05-04T06:16:12.640Z,100999.53
2023-05-04T06:19:15.441Z,101001.84
2023-05-04T06:22:18.284Z,101002.34
2023-05-04T06:25:20.858Z,101004.56
2023-05-04T06:28:23.578Z,101005.72
2023-05-04T06:31:26.610Z,101010.34
2023-05-04T06:34:29.821Z,101014.62
2023-05-04T06:37:32.512Z,101024.88
2023-05-04T06:40:37.132Z,101019.94
2023-05-04T06:43:42.341Z,101028.53
2023-05-04T06:46:45.144Z,101023.78
2023-05-04T06:49:48.785Z,101021.66
2023-05-04T06:52:52.150Z,101031.91
2023-05-04T06:55:54.860Z,101029.09
2023-05-04T06:58:57.750Z,101025.66
2023-05-04T07:02:00.333Z,101032.75
2023-05-04T07:05:04.124Z,101029.75
2023-05-04T07:08:07.006Z,101033.53
2023-05-04T07:11:10.586Z,101034.03
2023-05-04T07:14:13.404Z,101034.69
2023-05-04T07:17:16.112Z,101034.84
2023-05-04T07:20:21.597Z,101038.81
2023-05-04T07:23:25.566Z,101039.28
2023-05-04T07:26:28.486Z,101036.91
2023-05-04T07:29:31.309Z,101039.97
2023-05-04T07:32:33.966Z,101041.31
2023-05-04T07:35:36.942Z,101045.06
2023-05-04T07:38:39.696Z,101048.94
2023-05-04T07:41:42.996Z,101045.28
2023-05-04T07:44:46.269Z,101041.69
2023-05-04T07:47:49.023Z,101041.03
2023-05-04T07:50:54.233Z,101047.00
2023-05-04T07:53:57.447Z,101047.94
2023-05-04T07:57:03.546Z,101048.81
2023-05-04T08:00:07.913Z,101057.91
2023-05-04T08:03:10.788Z,101050.19
2023-05-04T08:06:13.546Z,101053.94
2023-05-04T08:09:16.672Z,101054.69
2023-05-04T08:12:21.370Z,101053.25
2023-05-04T08:15:24.112Z,101058.94
2023-05-04T08:18:28.347Z,101050.37
2023-05-04T08:21:31.456Z,101054.94
2023-05-04T08:24:34.244Z,101060.75
2023-05-04T08:27:36.910Z,101050.37
2023-05-04T08:30:39.613Z,101057.28
2023-05-04T08:33:42.421Z,101050.44
2023-05-04T08:36:45.131Z,101040.44
2023-05-04T08:39:47.815Z,101042.72
2023-05-04T08:42:53.239Z,101039.31
2023-05-04T08:45:56.134Z,101043.72
2023-05-04T08:48:58.826Z,101049.63
2023-05-04T08:52:01.500Z,101053.50
2023-05-04T08:55:05.995Z,101043.66
2023-05-04T08:58:12.415Z,101042.78
2023-05-04T09:01:17.334Z,101054.09
2023-05-04T09:04:20.923Z,101050.97
2023-05-04T09:07:23.793Z,101041.81
2023-05-04T09:10:29.396Z,101048.13
2023-05-04T09:13:32.382Z,101042.62
2023-05-04T09:16:38.759Z,101042.97
2023-05-04T09:19:44.184Z,101030.72
2023-05-04T09:22:46.789Z,101031.97
2023-05-04T09:25:55.768Z,101028.84
2023-05-04T09:29:14.035Z,101022.34
2023-05-04T09:32:17.060Z,101021.03
2023-05-04T09:35:33.811Z,101015.66
2023-05-04T09:38:36.952Z,101029.25
2023-05-04T09:41:39.834Z,101018.00
2023-05-04T09:44:42.447Z,101023.75
2023-05-04T09:47:45.115Z,101019.03
2023-05-04T09:50:52.285Z,101027.88
2023-05-04T09:53:55.157Z,101025.81
2023-05-04T09:57:04.612Z,101023.72
2023-05-04T10:00:13.309Z,101019.53
2023-05-04T10:03:18.234Z,101020.69
2023-05-04T10:06:22.389Z,101023.75
2023-05-04T10:09:27.904Z,101016.78
2023-05-04T10:12:31.259Z,101012.03
2023-05-04T10:15:34.271Z,101026.63
2023-05-04T10:18:52.173Z,101022.44
2023-05-04T10:22:04.259Z,101021.25
2023-05-04T10:25:27.672Z,101011.66
2023-05-04T10:28:44.863Z,101015.84
2023-05-04T10:31:48.192Z,101005.22
2023-05-04T10:34:51.364Z,100998.22
2023-05-04T10:37:57.309Z,100991.62
2023-05-04T10:41:01.161Z,100989.25
2023-05-04T10:44:05.175Z,100991.97
2023-05-04T10:47:08.532Z,100979.78
2023-05-04T10:50:14.799Z,100974.00
2023-05-04T10:53:18.578Z,100975.56
2023-05-04T10:56:25.511Z,100979.03
2023-05-04T10:59:28.254Z,100971.47
2023-05-04T11:02:32.613Z,100968.38
2023-05-04T11:05:51.693Z,100964.78
2023-05-04T11:09:02.379Z,100955.50
2023-05-04T11:12:05.981Z,100951.19
2023-05-04T11:15:10.873Z,100949.53
2023-05-04T11:18:13.982Z,100949.66
2023-05-04T11:21:27.078Z,100954.56
2023-05-04T11:24:43.602Z,100953.53
2023-05-04T11:27:49.368Z,100945.78
2023-05-04T11:30:56.122Z,100950.56
2023-05-04T11:33:58.934Z,100933.16
2023-05-04T11:37:09.076Z,100935.59
2023-05-04T11:40:24.074Z,100937.00
2023-05-04T11:43:26.925Z,100941.47
2023-05-04T11:46:30.325Z,100930.44
2023-05-04T11:49:34.085Z,100933.25
2023-05-04T11:52:37.079Z,100924.16
2023-05-04T11:55:40.132Z,100922.47
2023-05-04T11:58:42.815Z,100922.66
2023-05-04T12:01:45.620Z,100914.25
2023-05-04T12:04:48.353Z,100920.78
2023-05-04T12:07:51.198Z,100924.87
2023-05-04T12:11:21.948Z,100919.22
2023-05-04T12:14:28.446Z,100909.25
2023-05-04T12:17:41.504Z,100911.56
2023-05-04T12:20:46.072Z,100910.53
2023-05-04T12:23:48.889Z,100913.22
2023-05-04T12:26:51.701Z,100903.16
2023-05-04T12:29:54.542Z,100900.78
2023-05-04T12:32:57.239Z,100908.78
2023-05-04T12:36:00.918Z,100903.62
2023-05-04T12:39:04.409Z,100896.78
2023-05-04T12:42:07.102Z,100899.88
2023-05-04T12:45:10.776Z,100891.63
2023-05-04T12:48:13.499Z,100888.28
2023-05-04T12:51:17.935Z,100892.16
2023-05-04T12:54:20.711Z,100885.75
2023-05-04T12:57:23.415Z,100884.41
2023-05-04T13:00:27.986Z,100877.69
2023-05-04T13:03:30.634Z,100869.56
2023-05-04T13:06:33.483Z,100869.59
2023-05-04T13:09:36.314Z,100871.72
2023-05-04T13:12:39.109Z,100864.34
2023-05-04T13:15:42.375Z,100868.78
2023-05-04T13:18:45.248Z,100860.63
2023-05-04T13:21:48.105Z,100857.00
2023-05-04T13:24:50.937Z,100852.88
2023-05-04T13:27:54.573Z,100855.22
2023-05-04T13:30:57.789Z,100852.09
2023-05-04T13:34:00.463Z,100846.00
2023-05-04T13:37:03.329Z,100846.00
2023-05-04T13:40:06.494Z,100837.16
2023-05-04T13:43:09.787Z,100837.44
2023-05-04T13:46:13.190Z,100837.84
2023-05-04T13:49:15.867Z,100827.44
2023-05-04T13:52:19.512Z,100826.84
2023-05-04T13:55:22.338Z,100822.50
2023-05-04T13:58:25.096Z,100827.06
2023-05-04T14:01:28.787Z,100817.97
2023-05-04T14:04:31.971Z,100811.13
2023-05-04T14:07:35.201Z,100807.78
2023-05-04T14:10:38.561Z,100819.16
2023-05-04T14:13:41.205Z,100815.53
2023-05-04T14:16:43.860Z,100804.81
2023-05-04T14:19:46.647Z,100806.28
2023-05-04T14:22:49.306Z,100800.69
2023-05-04T14:25:53.594Z,100800.59
2023-05-04T14:28:56.473Z,100804.66
2023-05-04T14:31:59.413Z,100801.25
2023-05-04T14:35:11.214Z,100798.38
2023-05-04T14:38:14.037Z,100789.69
2023-05-04T14:41:16.708Z,100792.13
2023-05-04T14:44:20.658Z,100785.66
2023-05-04T14:47:23.244Z,100790.88
2023-05-04T14:50:28.453Z,100777.09
2023-05-04T14:53:36.162Z,100778.31
2023-05-04T14:56:40.071Z,100783.13
2023-05-04T14:59:43.130Z,100781.78
2023-05-04T15:02:46.034Z,100781.50
2023-05-04T15:05:48.819Z,100779.16
2023-05-04T15:08:51.563Z,100778.63
2023-05-04T15:11:54.241Z,100772.19
2023-05-04T15:14:57.058Z,100769.22
2023-05-04T15:17:59.930Z,100776.81
2023-05-04T15:21:03.352Z,100764.09
2023-05-04T15:24:06.242Z,100774.78
2023-05-04T15:27:09.230Z,100763.56
2023-05-04T15:30:12.356Z,100773.94
2023-05-04T15:33:15.124Z,100763.69
2023-05-04T15:36:18.129Z,100761.31
2023-05-04T15:39:20.997Z,100756.06
2023-05-04T15:42:23.664Z,100749.13
2023-05-04T15:45:26.289Z,100754.53
2023-05-04T15:48:28.998Z,100751.50
2023-05-04T15:51:32.182Z,100751.28
2023-05-04T15:54:35.373Z,100749.03
2023-05-04T15:57:38.126Z,100746.41
2023-05-04T16:00:43.288Z,100738.69
2023-05-04T16:03:46.131Z,100743.22
2023-05-04T16:06:48.856Z,100744.69
2023-05-04T16:09:51.837Z,100744.59
2023-05-04T16:12:54.653Z,100736.56
2023-05-04T16:15:58.198Z,100727.88
2023-05-04T16:19:00.990Z,100730.09
2023-05-04T16:22:03.812Z,100732.75
2023-05-04T16:25:07.855Z,100743.59
2023-05-04T16:28:11.952Z,100737.88
2023-05-04T16:31:15.284Z,100734.03
2023-05-04T16:34:18.190Z,100735.91
2023-05-04T16:37:20.943Z,100732.50
2023-05-04T16:40:24.303Z,100728.63
2023-05-04T16:43:26.941Z,100730.03
2023-05-04T16:46:29.705Z,100732.59
2023-05-04T16:49:32.498Z,100724.84
2023-05-04T16:52:35.449Z,100724.59
2023-05-04T16:55:38.288Z,100726.22
2023-05-04T16:58:41.375Z,100723.25
2023-05-04T17:01:44.256Z,100714.66
2023-05-04T17:04:47.096Z,100724.84
2023-05-04T17:07:50.040Z,100721.34
2023-05-04T17:10:58.906Z,100715.16
2023-05-04T17:14:01.790Z,100718.91
2023-05-04T17:17:04.466Z,100718.81
2023-05-04T17:20:09.680Z,100723.50
2023-05-04T17:23:14.195Z,100719.53
2023-05-04T17:26:16.954Z,100712.94
2023-05-04T17:29:19.833Z,100719.19
2023-05-04T17:32:22.493Z,100719.13
2023-05-04T17:35:26.490Z,100727.78
2023-05-04T17:38:29.532Z,100738.75
2023-05-04T17:41:33.160Z,100732.00
2023-05-04T17:44:35.971Z,100738.59
2023-05-04T17:47:38.849Z,100736.75
2023-05-04T17:50:42.417Z,100742.84
2023-05-04T17:53:45.925Z,100744.28
2023-05-04T17:56:48.721Z,100744.19
2023-05-04T17:59:51.588Z,100740.78
2023-05-04T18:02:54.311Z,100742.09
2023-05-04T18:05:57.118Z,100748.31
2023-05-04T18:09:00.941Z,100755.72
2023-05-04T18:12:03.967Z,100756.19
2023-05-04T18:15:09.236Z,100751.69
2023-05-04T18:18:12.382Z,100757.62
2023-05-04T18:21:15.583Z,100754.34
2023-05-04T18:24:18.773Z,100764.12
2023-05-04T18:27:21.656Z,100766.94
2023-05-04T18:30:27.755Z,100762.37
2023-05-04T18:33:31.601Z,100773.28
2023-05-04T18:36:34.673Z,100766.88
2023-05-04T18:39:38.721Z,100772.34
2023-05-04T18:42:43.295Z,100786.91
2023-05-04T18:45:46.399Z,100785.53
2023-05-04T18:48:49.999Z,100792.91
2023-05-04T18:51:52.792Z,100787.56
2023-05-04T18:54:55.934Z,100800.09
2023-05-04T18:57:58.680Z,100783.63
2023-05-04T19:01:03.112Z,100789.84
2023-05-04T19:04:06.314Z,100788.59
2023-05-04T19:07:12.135Z,100798.56
2023-05-04T19:10:15.364Z,100803.25
2023-05-04T19:13:18.616Z,100800.63
2023-05-04T19:16:21.988Z,100813.72
2023-05-04T19:19:26.146Z,100810.09
2023-05-04T19:22:28.762Z,100817.06
2023-05-04T19:25:34.970Z,100819.44
2023-05-04T19:28:40.148Z,100815.47
2023-05-04T19:31:43.257Z,100815.81
2023-05-04T19:34:46.448Z,100818.47
2023-05-04T19:37:49.583Z,100821.97
2023-05-04T19:40:54.456Z,100820.97
2023-05-04T19:43:59.109Z,100815.00
2023-05-04T19:47:04.920Z,100823.94
2023-05-04T19:50:14.296Z,100825.75
2023-05-04T19:53:21.678Z,100814.19
2023-05-04T19:56:24.937Z,100818.62
2023-05-04T19:59:27.726Z,100816.44
2023-05-04T20:02:32.632Z,100819.75
2023-05-04T20:05:35.588Z,100821.38
2023-05-04T20:08:38.310Z,100817.03
2023-05-04T20:12:01.106Z,100814.38
2023-05-04T20:15:06.418Z,100816.69
2023-05-04T20:18:09.269Z,100816.84
2023-05-04T20:21:11.997Z,100817.94
2023-05-04T20:24:15.586Z,100817.22
2023-05-04T20:27:18.451Z,100817.88
2023-05-04T20:30:21.586Z,100814.06
2023-05-04T20:33:24.883Z,100818.47
2023-05-04T20:36:27.623Z,100820.09
2023-05-04T20:39:30.695Z,100821.97
2023-05-04T20:42:33.462Z,100822.75
2023-05-04T20:45:36.299Z,100832.78
2023-05-04T20:48:39.178Z,100823.84
2023-05-04T20:51:42.409Z,100823.66
2023-05-04T20:54:45.080Z,100819.16
2023-05-04T20:57:47.925Z,100816.63
2023-05-04T21:00:52.355Z,100814.41
2023-05-04T21:03:55.348Z,100811.72
2023-05-04T21:06:58.130Z,100815.34
2023-05-04T21:10:01.280Z,100817.91
2023-05-04T21:13:04.138Z,100818.50
2023-05-04T21:16:07.980Z,100814.53
2023-05-04T21:19:10.945Z,100817.94
2023-05-04T21:22:17.704Z,100811.47
2023-05-04T21:25:20.552Z,100812.19
2023-05-04T21:28:23.845Z,100819.19
2023-05-04T21:31:27.205Z,100816.28
2023-05-04T21:34:30.327Z,100801.78
2023-05-04T21:37:33.682Z,100810.81
2023-05-04T21:40:37.653Z,100807.13
2023-05-04T21:43:40.799Z,100804.41
2023-05-04T21:46:43.609Z,100801.50
2023-05-04T21:49:46.843Z,100802.41
2023-05-04T21:52:49.585Z,100798.12
2023-05-04T21:55:52.666Z,100796.91
2023-05-04T21:58:55.430Z,100796.37
2023-05-04T22:01:58.395Z,100795.69
2023-05-04T22:05:01.150Z,100799.44
2023-05-04T22:08:03.833Z,100797.69
2023-05-04T22:11:07.966Z,100802.25
2023-05-04T22:14:10.767Z,100802.03
2023-05-04T22:17:13.502Z,100800.22
2023-05-04T22:20:16.143Z,100802.47
2023-05-04T22:23:18.954Z,100809.91
2023-05-04T22:26:21.584Z,100811.03
2023-05-04T22:29:24.261Z,100812.56
2023-05-04T22:32:27.086Z,100817.97
2023-05-04T22:35:31.586Z,100824.34
2023-05-04T22:38:34.502Z,100813.59
2023-05-04T22:41:37.258Z,100823.69
2023-05-04T22:44:40.288Z,100824.94
2023-05-04T22:47:42.990Z,100821.62
2023-05-04T22:50:47.095Z,100819.69
2023-05-04T22:53:51.210Z,100818.84
2023-05-04T22:56:53.891Z,100819.97
2023-05-04T22:59:56.632Z,100813.63
2023-05-04T23:02:59.600Z,100819.28
2023-05-04T23:06:02.974Z,100820.41
2023-05-04T23:09:05.749Z,100807.84
2023-05-04T23:12:09.111Z,100812.25
2023-05-04T23:15:12.262Z,100807.00
2023-05-04T23:18:14.977Z,100803.16
2023-05-04T23:21:17.752Z,100812.56
2023-05-04T23:24:20.463Z,100809.25
2023-05-04T23:27:23.126Z,100802.91
2023-05-04T23:30:26.033Z,100802.50
2023-05-04T23:33:28.746Z,100797.25
2023-05-04T23:36:31.426Z,100798.34
2023-05-04T23:39:34.771Z,100798.78
2023-05-04T23:42:40.992Z,100792.69
2023-05-04T23:45:44.001Z,100786.06
2023-05-04T23:48:47.142Z,100787.84
2023-05-04T23:51:49.999Z,100790.75
2023-05-04T23:54:54.356Z,100791.44
2023-05-04T23:57:57.670Z,100784.69
